Time;durP1;ratioP1;P1;durP2;ratioP2;P2;SDS_P1;SDS_P2;PMS_P1;PMS_P2;Temp;Humidity;BMP_temperature;BMP_pressure;BME280_temperature;BME280_humidity;BME280_pressure;Samples;Min_cycle;Max_cycle;Signal;HPM_P1;HPM_P2
2021/11/25 00:00:17;;;;;;;13.33;10.23;;;;;;;-0.11;100.00;100646.97;695969;28;1270;-53
2021/11/25 00:00:39;;;;;;;12.93;9.95;;;;;;;-0.09;100.00;100651.34;695968;28;1092;-51
2021/11/25 00:00:59;;;;;;;13.48;9.68;;;;;;;-0.09;100.00;100651.34;695382;28;4400;-53
2021/11/25 00:01:20;;;;;;;13.32;9.95;;;;;;;-0.08;100.00;100652.25;694969;28;1073;-52
2021/11/25 00:01:41;;;;;;;13.77;10.07;;;;;;;-0.07;100.00;100646.25;696020;28;3342;-54
2021/11/25 00:02:01;;;;;;;12.73;9.70;;;;;;;-0.08;100.00;100653.09;696460;28;1581;-51
2021/11/25 00:02:22;;;;;;;13.37;9.83;;;;;;;-0.07;100.00;100651.41;695793;28;1404;-52
2021/11/25 00:02:42;;;;;;;12.47;9.57;;;;;;;-0.07;100.00;100642.03;696796;28;1241;-52
2021/11/25 00:03:03;;;;;;;13.07;9.80;;;;;;;-0.04;100.00;100639.56;698994;28;1209;-51
2021/11/25 00:03:23;;;;;;;13.55;9.65;;;;;;;-0.05;100.00;100640.38;697461;28;2158;-53
2021/11/25 00:03:44;;;;;;;13.95;10.10;;;;;;;-0.04;100.00;100642.13;698270;28;2118;-52
2021/11/25 00:04:04;;;;;;;12.70;9.70;;;;;;;-0.05;100.00;100642.94;697931;28;4536;-51
2021/11/25 00:04:25;;;;;;;11.93;9.30;;;;;;;-0.04;100.00;100639.56;699341;28;1195;-54
2021/11/25 00:04:45;;;;;;;12.70;9.60;;;;;;;-0.04;100.00;100641.25;697117;28;3063;-50
2021/11/25 00:05:07;;;;;;;12.63;9.80;;;;;;;-0.03;100.00;100633.59;696296;28;2133;-52
2021/11/25 00:05:28;;;;;;;12.35;9.90;;;;;;;-0.01;100.00;100639.66;696557;28;1979;-50
2021/11/25 00:05:48;;;;;;;13.25;10.02;;;;;;;-0.01;100.00;100638.81;696455;28;1256;-50
2021/11/25 00:06:08;;;;;;;14.75;9.63;;;;;;;-0.02;100.00;100625.06;699965;28;1165;-50
2021/11/25 00:06:29;;;;;;;13.93;9.80;;;;;;;-0.02;100.00;100632.75;700203;28;1188;-52
2021/11/25 00:06:49;;;;;;;15.50;10.13;;;;;;;-0.03;100.00;100630.13;699773;28;1325;-53
2021/11/25 00:07:10;;;;;;;14.40;9.80;;;;;;;-0.02;100.00;100626.75;699187;28;4631;-53
2021/11/25 00:07:30;;;;;;;12.32;9.73;;;;;;;-0.03;100.00;100627.56;699760;28;1161;-55
2021/11/25 00:07:51;;;;;;;12.73;9.70;;;;;;;-0.03;100.00;100623.31;700099;28;2007;-53
2021/11/25 00:08:11;;;;;;;11.82;9.55;;;;;;;-0.04;100.00;100628.41;696672;28;3372;-52
2021/11/25 00:08:31;;;;;;;11.83;9.60;;;;;;;-0.05;100.00;100621.50;697599;28;1405;-54
2021/11/25 00:08:52;;;;;;;11.15;9.07;;;;;;;-0.06;100.00;100625.75;698548;28;1154;-52
2021/11/25 00:09:12;;;;;;;11.93;9.03;;;;;;;-0.05;100.00;100616.38;698494;28;1318;-51
2021/11/25 00:09:33;;;;;;;12.90;9.60;;;;;;;-0.06;100.00;100623.19;700478;28;1348;-50
2021/11/25 00:09:53;;;;;;;12.70;9.50;;;;;;;-0.04;100.00;100616.44;698722;28;5666;-53
2021/11/25 00:10:14;;;;;;;12.93;9.60;;;;;;;-0.01;100.00;100619.09;698544;28;1538;-50
2021/11/25 00:10:36;;;;;;;12.85;9.90;;;;;;;0.01;100.00;100618.28;699120;28;1182;-52
2021/11/25 00:10:57;;;;;;;11.95;9.38;;;;;;;0.02;100.00;100620.91;698066;28;1208;-50
2021/11/25 00:11:17;;;;;;;12.88;9.23;;;;;;;0.03;100.00;100620.09;698273;28;1003;-52
2021/11/25 00:11:38;;;;;;;12.63;9.33;;;;;;;0.04;100.00;100618.41;699503;28;3455;-53
2021/11/25 00:11:58;;;;;;;12.23;9.48;;;;;;;0.02;100.00;100613.22;696959;28;1367;-52
2021/11/25 00:12:19;;;;;;;10.83;9.03;;;;;;;0.02;100.00;100622.63;696579;28;1225;-52
2021/11/25 00:12:39;;;;;;;11.52;9.30;;;;;;;0.02;100.00;100622.63;696111;28;1459;-51
2021/11/25 00:12:59;;;;;;;11.98;9.60;;;;;;;0.01;100.00;100624.28;695628;28;4395;-51
2021/11/25 00:13:20;;;;;;;11.43;9.70;;;;;;;0.02;100.00;100627.75;696126;28;1584;-51
2021/11/25 00:13:40;;;;;;;12.40;10.17;;;;;;;0.03;100.00;100619.22;696824;28;1108;-52
2021/11/25 00:14:01;;;;;;;12.18;9.57;;;;;;;0.02;100.00;100622.63;697284;28;1210;-53
2021/11/25 00:14:21;;;;;;;11.90;9.63;;;;;;;-0.02;100.00;100622.47;696052;28;1332;-50
2021/11/25 00:14:42;;;;;;;12.30;9.63;;;;;;;-0.04;100.00;100618.13;696646;28;3277;-51
2021/11/25 00:15:05;;;;;;;13.33;9.83;;;;;;;-0.04;100.00;100618.13;696587;28;2044;-55
2021/11/25 00:15:26;;;;;;;13.77;9.95;;;;;;;-0.07;100.00;100618.88;699211;28;1381;-52
2021/11/25 00:15:46;;;;;;;11.90;9.73;;;;;;;-0.08;100.00;100622.28;698552;28;1551;-52
2021/11/25 00:16:07;;;;;;;12.43;9.80;;;;;;;-0.07;100.00;100618.88;697925;28;4416;-55
2021/11/25 00:16:27;;;;;;;12.70;10.35;;;;;;;-0.05;100.00;100617.25;698928;28;1265;-51
2021/11/25 00:16:48;;;;;;;12.23;9.80;;;;;;;-0.05;100.00;100616.38;699182;28;1194;-52
2021/11/25 00:17:08;;;;;;;13.17;10.07;;;;;;;-0.04;100.00;100629.28;698544;28;1243;-52
2021/11/25 00:17:29;;;;;;;12.20;9.77;;;;;;;-0.04;100.00;100619.00;697415;28;1207;-54
2021/11/25 00:17:49;;;;;;;12.90;9.93;;;;;;;-0.02;100.00;100622.47;698404;28;1079;-51
2021/11/25 00:18:10;;;;;;;12.23;10.02;;;;;;;0.00;100.00;100622.56;698201;28;3438;-54
2021/11/25 00:18:30;;;;;;;11.77;9.87;;;;;;;0.01;100.00;100623.44;699363;28;1273;-52
2021/11/25 00:18:50;;;;;;;11.93;9.50;;;;;;;0.04;100.00;100620.97;698972;28;1332;-52
2021/11/25 00:19:11;;;;;;;13.20;9.63;;;;;;;0.05;100.00;100622.72;697671;28;4547;-55
2021/11/25 00:19:31;;;;;;;14.75;9.98;;;;;;;0.08;100.00;100620.25;696443;28;1515;-52
2021/11/25 00:19:52;;;;;;;12.03;9.27;;;;;;;0.10;100.00;100621.22;697427;28;1179;-53
2021/11/25 00:20:13;;;;;;;11.40;9.40;;;;;;;0.12;100.00;100624.69;697008;28;1119;-53
2021/11/25 00:20:34;;;;;;;10.98;9.20;;;;;;;0.16;100.00;100621.44;697411;28;2795;-51
2021/11/25 00:20:54;;;;;;;11.68;8.98;;;;;;;0.19;100.00;100621.53;697479;28;1315;-52
2021/11/25 00:21:14;;;;;;;11.20;8.77;;;;;;;0.23;100.00;100622.53;697381;28;3811;-51
2021/11/25 00:21:35;;;;;;;11.00;8.68;;;;;;;0.24;100.00;100624.28;698391;28;4599;-52
2021/11/25 00:21:55;;;;;;;11.00;8.90;;;;;;;0.25;100.00;100624.34;698322;28;4484;-51
2021/11/25 00:22:16;;;;;;;11.27;8.65;;;;;;;0.26;100.00;100614.91;699669;28;1383;-53
2021/11/25 00:22:36;;;;;;;11.40;8.90;;;;;;;0.24;100.00;100622.59;699141;28;1175;-51
2021/11/25 00:22:57;;;;;;;10.93;9.10;;;;;;;0.23;100.00;100622.53;698533;28;1624;-51
2021/11/25 00:23:17;;;;;;;10.77;8.85;;;;;;;0.21;100.00;100625.06;697992;28;1514;-52
2021/11/25 00:23:41;;;;;;;11.87;9.27;;;;;;;0.21;100.00;100622.47;699731;28;957;-53
2021/11/25 00:24:04;;;;;;;12.45;9.20;;;;;;;0.22;100.00;100625.91;699106;28;1050;-54
2021/11/25 00:24:24;;;;;;;12.00;9.13;;;;;;;0.18;100.00;100619.81;698190;28;2974;-52
2021/11/25 00:24:45;;;;;;;11.10;8.97;;;;;;;0.20;100.00;100620.72;698949;28;3468;-54
2021/11/25 00:25:06;;;;;;;12.00;8.98;;;;;;;0.22;100.00;100620.78;698010;28;4615;-52
2021/11/25 00:25:27;;;;;;;11.70;8.75;;;;;;;0.21;100.00;100619.00;696892;28;1914;-50
2021/11/25 00:25:47;;;;;;;12.90;9.20;;;;;;;0.19;100.00;100615.53;696689;28;1680;-55
2021/11/25 00:26:09;;;;;;;12.82;8.93;;;;;;;0.16;100.00;100619.72;697296;28;1044;-50
2021/11/25 00:26:29;;;;;;;12.15;9.00;;;;;;;0.15;100.00;100617.09;696817;28;1040;-52
2021/11/25 00:26:49;;;;;;;11.77;8.70;;;;;;;0.16;100.00;100613.72;697737;28;1258;-50
2021/11/25 00:27:10;;;;;;;11.90;8.70;;;;;;;0.18;100.00;100617.22;694706;28;1261;-51
2021/11/25 00:27:30;;;;;;;10.50;8.40;;;;;;;0.21;100.00;100616.44;698746;28;1396;-53
2021/11/25 00:27:51;;;;;;;13.32;9.10;;;;;;;0.26;100.00;100614.91;698751;28;3511;-52
2021/11/25 00:28:11;;;;;;;13.13;9.40;;;;;;;0.25;100.00;100610.59;694992;28;4322;-52
2021/11/25 00:28:34;;;;;;;12.68;9.27;;;;;;;0.24;100.00;100614.88;693818;28;1525;-59
2021/11/25 00:28:55;;;;;;;13.90;9.68;;;;;;;0.23;100.00;100610.53;694739;28;1047;-53
2021/11/25 00:29:15;;;;;;;14.52;9.50;;;;;;;0.22;100.00;100618.19;695913;28;1004;-53
2021/11/25 00:29:35;;;;;;;11.83;9.07;;;;;;;0.22;100.00;100613.91;694279;28;1199;-52
2021/11/25 00:29:56;;;;;;;11.68;9.30;;;;;;;0.23;100.00;100617.38;695264;28;1162;-52
2021/11/25 00:30:17;;;;;;;12.67;9.53;;;;;;;0.22;100.00;100610.50;697489;28;1109;-54
2021/11/25 00:30:37;;;;;;;14.02;9.93;;;;;;;0.20;100.00;100612.16;699035;28;1131;-55
2021/11/25 00:30:59;;;;;;;14.20;10.10;;;;;;;0.18;100.00;100609.53;699217;28;4653;-53
2021/11/25 00:31:19;;;;;;;15.20;10.55;;;;;;;0.17;100.00;100608.63;697493;28;3294;-51
2021/11/25 00:31:40;;;;;;;15.05;10.88;;;;;;;0.15;100.00;100611.94;697943;28;1507;-53
2021/11/25 00:32:00;;;;;;;16.70;11.63;;;;;;;0.15;100.00;100607.72;698640;28;1414;-53
2021/11/25 00:32:21;;;;;;;21.35;14.35;;;;;;;0.15;100.00;100607.72;698887;28;1075;-51
2021/11/25 00:32:42;;;;;;;24.70;15.63;;;;;;;0.16;100.00;100616.28;698785;28;1167;-50
2021/11/25 00:33:03;;;;;;;29.27;17.88;;;;;;;0.13;100.00;100614.47;698066;28;1151;-54
2021/11/25 00:33:24;;;;;;;28.85;17.33;;;;;;;0.15;100.00;100609.38;698619;28;1074;-50
2021/11/25 00:33:44;;;;;;;20.55;13.82;;;;;;;0.18;100.00;100609.53;696114;28;1602;-50
2021/11/25 00:34:04;;;;;;;19.27;12.73;;;;;;;0.19;100.00;100606.09;695878;28;4682;-54
2021/11/25 00:34:25;;;;;;;19.60;12.30;;;;;;;0.22;100.00;100605.34;695864;28;3111;-53
2021/11/25 00:34:45;;;;;;;18.53;12.17;;;;;;;0.22;100.00;100606.22;697141;28;1439;-53
2021/11/25 00:35:07;;;;;;;18.23;12.77;;;;;;;0.24;100.00;100607.16;697348;28;1351;-52
2021/11/25 00:35:27;;;;;;;19.35;13.65;;;;;;;0.25;100.00;100610.59;696582;28;1079;-52
2021/11/25 00:35:48;;;;;;;19.75;13.93;;;;;;;0.28;100.00;100610.72;699394;28;1068;-52
2021/11/25 00:36:08;;;;;;;20.53;13.90;;;;;;;0.29;100.00;100603.06;699037;28;1257;-55
2021/11/25 00:36:29;;;;;;;20.10;13.18;;;;;;;0.30;100.00;100607.38;698418;28;1062;-52
2021/11/25 00:36:50;;;;;;;18.77;12.65;;;;;;;0.30;100.00;100603.94;697861;28;1400;-51
2021/11/25 00:37:10;;;;;;;18.27;12.48;;;;;;;0.28;100.00;100609.03;698188;28;4811;-55
2021/11/25 00:37:31;;;;;;;19.13;12.77;;;;;;;0.27;100.00;100604.69;699174;28;3293;-52
2021/11/25 00:37:51;;;;;;;19.60;12.88;;;;;;;0.27;100.00;100604.69;698325;28;1505;-53
2021/11/25 00:38:12;;;;;;;21.77;13.87;;;;;;;0.29;100.00;100607.31;698311;28;1488;-51
2021/11/25 00:38:32;;;;;;;18.98;13.52;;;;;;;0.24;100.00;100602.00;698472;28;1110;-55
2021/11/25 00:38:53;;;;;;;19.35;13.45;;;;;;;0.23;100.00;100610.53;698762;28;1380;-53
2021/11/25 00:39:13;;;;;;;21.53;14.70;;;;;;;0.23;100.00;100605.41;698150;28;4050;-55
2021/11/25 00:39:34;;;;;;;24.25;15.88;;;;;;;0.22;100.00;100601.06;697583;28;1323;-51
2021/11/25 00:39:54;;;;;;;24.50;16.37;;;;;;;0.22;100.00;100601.06;698709;28;4733;-52
2021/11/25 00:40:17;;;;;;;23.73;16.05;;;;;;;0.24;100.00;100607.16;698423;28;1019;-52
2021/11/25 00:40:37;;;;;;;22.13;14.75;;;;;;;0.25;100.00;100601.19;698032;28;3264;-50
2021/11/25 00:40:58;;;;;;;20.30;13.83;;;;;;;0.27;100.00;100602.13;696918;28;3452;-51
2021/11/25 00:41:19;;;;;;;23.58;15.10;;;;;;;0.28;100.00;100603.88;696801;28;975;-53
2021/11/25 00:41:41;;;;;;;21.85;14.65;;;;;;;0.28;100.00;100600.44;696558;28;1331;-51
2021/11/25 00:42:01;;;;;;;20.50;14.30;;;;;;;0.28;100.00;100603.00;697758;28;1001;-52
2021/11/25 00:42:22;;;;;;;21.60;14.40;;;;;;;0.29;100.00;100600.50;696671;28;1065;-53
2021/11/25 00:42:43;;;;;;;20.63;14.23;;;;;;;0.29;100.00;100603.06;697014;28;1718;-54
2021/11/25 00:43:04;;;;;;;19.75;13.82;;;;;;;0.28;100.00;100598.72;697824;28;4545;-52
2021/11/25 00:43:24;;;;;;;19.83;14.43;;;;;;;0.29;100.00;100594.44;695963;28;979;-55
2021/11/25 00:43:45;;;;;;;21.30;14.18;;;;;;;0.28;100.00;100600.44;695911;28;3227;-51
2021/11/25 00:44:05;;;;;;;18.60;13.03;;;;;;;0.27;100.00;100594.41;695356;28;2361;-51
2021/11/25 00:44:26;;;;;;;17.83;12.43;;;;;;;0.29;100.00;100594.44;696122;28;1144;-53
2021/11/25 00:44:46;;;;;;;16.83;12.73;;;;;;;0.29;100.00;100603.06;695992;28;1188;-52
2021/11/25 00:45:08;;;;;;;16.98;12.75;;;;;;;0.30;100.00;100594.50;696321;28;1300;-51
2021/11/25 00:45:28;;;;;;;16.00;12.45;;;;;;;0.30;100.00;100594.50;698629;28;1918;-51
2021/11/25 00:45:49;;;;;;;18.38;12.40;;;;;;;0.32;100.00;100600.59;698969;28;1316;-54
2021/11/25 00:46:10;;;;;;;18.95;12.55;;;;;;;0.38;100.00;100602.50;697967;28;4624;-51
2021/11/25 00:46:30;;;;;;;17.60;12.93;;;;;;;0.39;100.00;100593.09;698743;28;1143;-51
2021/11/25 00:46:51;;;;;;;17.87;12.90;;;;;;;0.39;100.00;100587.94;698481;28;1252;-51
2021/11/25 00:47:11;;;;;;;18.13;12.75;;;;;;;0.39;100.00;100595.66;698827;28;3705;-55
2021/11/25 00:47:31;;;;;;;17.60;12.60;;;;;;;0.39;100.00;100591.41;698014;28;2583;-53
2021/11/25 00:47:52;;;;;;;17.58;12.80;;;;;;;0.37;100.00;100587.03;698795;28;1309;-53
2021/11/25 00:48:12;;;;;;;16.33;12.63;;;;;;;0.34;100.00;100592.94;698840;28;1317;-52
2021/11/25 00:48:33;;;;;;;18.85;13.48;;;;;;;0.34;100.00;100590.34;699832;28;1275;-53
2021/11/25 00:48:53;;;;;;;20.17;14.33;;;;;;;0.32;100.00;100590.31;698050;28;4582;-52
2021/11/25 00:49:13;;;;;;;19.08;14.38;;;;;;;0.32;100.00;100587.75;699328;28;1511;-51
2021/11/25 00:49:34;;;;;;;20.60;14.80;;;;;;;0.31;100.00;100587.69;696073;28;1447;-51
2021/11/25 00:49:54;;;;;;;20.77;15.60;;;;;;;0.29;100.00;100592.78;694474;28;1233;-51
2021/11/25 00:50:18;;;;;;;21.93;16.23;;;;;;;0.27;100.00;100591.84;694636;28;1051;-53
2021/11/25 00:50:39;;;;;;;21.35;15.90;;;;;;;0.26;100.00;100592.66;694015;28;3620;-52
2021/11/25 00:51:01;;;;;;;21.75;16.25;;;;;;;0.25;100.00;100590.91;693850;28;1977;-51
2021/11/25 00:51:21;;;;;;;21.98;16.17;;;;;;;0.24;100.00;100594.31;695001;28;1078;-51
2021/11/25 00:51:41;;;;;;;21.87;15.47;;;;;;;0.26;100.00;100587.50;697171;28;1465;-52
2021/11/25 00:52:02;;;;;;;20.07;14.77;;;;;;;0.26;100.00;100602.94;697983;28;5369;-52
2021/11/25 00:52:24;;;;;;;21.55;15.02;;;;;;;0.27;100.00;100594.41;698244;28;1137;-51
2021/11/25 00:52:45;;;;;;;22.45;15.63;;;;;;;0.31;100.00;100588.53;696767;28;1150;-54
2021/11/25 00:53:06;;;;;;;18.20;14.35;;;;;;;0.31;100.00;100596.25;693323;28;1375;-55
2021/11/25 00:53:26;;;;;;;20.70;15.00;;;;;;;0.31;100.00;100588.53;694780;28;1353;-51
2021/11/25 00:53:47;;;;;;;22.35;15.05;;;;;;;0.31;100.00;100591.13;694076;28;3337;-52
2021/11/25 00:54:07;;;;;;;21.90;15.57;;;;;;;0.31;100.00;100587.69;694370;28;1137;-52
2021/11/25 00:54:28;;;;;;;19.63;14.77;;;;;;;0.31;100.00;100590.25;692235;28;1069;-54
2021/11/25 00:54:48;;;;;;;18.00;14.37;;;;;;;0.32;100.00;100592.88;695087;28;1275;-51
2021/11/25 00:55:09;;;;;;;17.50;14.23;;;;;;;0.33;100.00;100584.34;695471;28;5082;-53
2021/11/25 00:55:29;;;;;;;17.73;13.77;;;;;;;0.36;100.00;100587.84;693983;28;1091;-53
2021/11/25 00:55:50;;;;;;;17.43;13.60;;;;;;;0.37;100.00;100585.31;694704;28;1224;-51
2021/11/25 00:56:10;;;;;;;16.53;13.37;;;;;;;0.37;100.00;100585.31;694096;28;1191;-55
2021/11/25 00:56:31;;;;;;;15.25;12.98;;;;;;;0.39;100.00;100582.78;696692;28;1429;-53
2021/11/25 00:56:51;;;;;;;14.67;12.47;;;;;;;0.40;100.00;100579.41;697713;28;1247;-52
2021/11/25 00:57:12;;;;;;;14.32;11.82;;;;;;;0.42;100.00;100585.50;697034;28;4231;-51
2021/11/25 00:57:32;;;;;;;13.20;11.00;;;;;;;0.41;100.00;100581.16;700039;28;1247;-53
2021/11/25 00:57:52;;;;;;;12.83;10.30;;;;;;;0.39;100.00;100583.69;698519;28;4447;-54
2021/11/25 00:58:13;;;;;;;13.70;10.27;;;;;;;0.39;100.00;100572.50;695661;28;1283;-52
2021/11/25 00:58:33;;;;;;;13.13;9.90;;;;;;;0.39;100.00;100575.06;696708;28;1452;-51
2021/11/25 00:58:54;;;;;;;12.57;10.27;;;;;;;0.38;100.00;100575.94;696428;28;1345;-51
2021/11/25 00:59:14;;;;;;;12.47;10.70;;;;;;;0.36;100.00;100572.41;695859;28;1350;-52
2021/11/25 00:59:34;;;;;;;13.48;11.20;;;;;;;0.34;100.00;100573.22;697429;28;843;-51
2021/11/25 00:59:55;;;;;;;14.30;11.70;;;;;;;0.33;100.00;100571.50;697097;28;1237;-51
2021/11/25 01:00:18;;;;;;;13.60;11.07;;;;;;;0.32;100.00;100577.44;699621;28;3069;-51
2021/11/25 01:00:39;;;;;;;13.63;10.68;;;;;;;0.34;100.00;100580.06;698892;28;3872;-53
2021/11/25 01:00:59;;;;;;;13.13;10.80;;;;;;;0.33;100.00;100575.75;698187;28;4552;-52
2021/11/25 01:01:20;;;;;;;13.50;10.30;;;;;;;0.33;100.00;100568.91;699080;28;1369;-52
2021/11/25 01:01:40;;;;;;;13.07;10.40;;;;;;;0.33;100.00;100573.16;699592;28;1255;-54
2021/11/25 01:02:01;;;;;;;12.32;9.93;;;;;;;0.33;100.00;100576.63;698838;28;1334;-51
2021/11/25 01:02:21;;;;;;;12.00;10.00;;;;;;;0.33;100.00;100574.06;699069;28;980;-51
2021/11/25 01:02:42;;;;;;;12.30;9.88;;;;;;;0.34;100.00;100574.94;698866;28;1193;-51
2021/11/25 01:03:03;;;;;;;12.93;9.90;;;;;;;0.35;100.00;100574.13;699054;28;1347;-51
2021/11/25 01:03:23;;;;;;;13.00;9.63;;;;;;;0.38;100.00;100570.78;696014;28;1155;-53
2021/11/25 01:03:44;;;;;;;11.63;9.43;;;;;;;0.42;100.00;100575.22;693985;28;3608;-52
2021/11/25 01:04:05;;;;;;;12.35;9.75;;;;;;;0.46;100.00;100579.66;692161;28;4717;-50
2021/11/25 01:04:25;;;;;;;13.30;9.35;;;;;;;0.45;100.00;100567.59;693782;28;1197;-52
2021/11/25 01:04:46;;;;;;;11.80;9.53;;;;;;;0.45;100.00;100577.88;693960;28;1374;-53
2021/11/25 01:05:07;;;;;;;11.73;9.68;;;;;;;0.43;100.00;100572.69;695424;28;1271;-52
2021/11/25 01:05:28;;;;;;;11.63;9.30;;;;;;;0.42;100.00;100578.66;695851;28;1918;-53
2021/11/25 01:05:49;;;;;;;11.77;8.97;;;;;;;0.42;100.00;100573.50;699043;28;1072;-55
2021/11/25 01:06:09;;;;;;;11.85;8.95;;;;;;;0.43;100.00;100574.38;701863;28;1108;-53
2021/11/25 01:06:30;;;;;;;11.88;9.15;;;;;;;0.43;100.00;100574.38;701532;28;1269;-53
2021/11/25 01:06:50;;;;;;;11.93;9.10;;;;;;;0.43;100.00;100571.78;701704;28;1297;-52
2021/11/25 01:07:11;;;;;;;11.20;9.15;;;;;;;0.42;100.00;100576.06;700602;28;4902;-55
2021/11/25 01:07:32;;;;;;;11.65;9.52;;;;;;;0.39;100.00;100577.66;701477;28;1226;-51
2021/11/25 01:07:52;;;;;;;12.57;9.20;;;;;;;0.38;100.00;100574.22;701730;28;1940;-51
2021/11/25 01:08:14;;;;;;;11.70;9.07;;;;;;;0.39;100.00;100577.66;696968;28;1381;-52
2021/11/25 01:08:34;;;;;;;11.10;9.40;;;;;;;0.38;100.00;100573.34;697561;28;1345;-51
2021/11/25 01:08:55;;;;;;;11.20;9.37;;;;;;;0.36;100.00;100572.41;698279;28;1091;-51
2021/11/25 01:09:15;;;;;;;11.35;9.00;;;;;;;0.33;100.00;100568.91;697904;28;1025;-53
2021/11/25 01:09:36;;;;;;;12.30;9.57;;;;;;;0.33;100.00;100575.75;697784;28;1406;-51
2021/11/25 01:09:56;;;;;;;12.23;9.75;;;;;;;0.31;100.00;100570.53;697925;28;4904;-55
2021/11/25 01:10:21;;;;;;;11.10;9.43;;;;;;;0.31;100.00;100575.69;699748;28;3081;-54
2021/11/25 01:10:42;;;;;;;12.40;9.55;;;;;;;0.29;100.00;100571.31;698677;28;1120;-52
2021/11/25 01:11:04;;;;;;;12.55;9.52;;;;;;;0.28;100.00;100572.16;699540;28;1310;-51
2021/11/25 01:11:25;;;;;;;13.25;10.35;;;;;;;0.28;100.00;100573.03;699438;28;1240;-52
2021/11/25 01:11:47;;;;;;;12.75;9.93;;;;;;;0.28;100.00;100575.59;699767;28;1054;-52
2021/11/25 01:12:09;;;;;;;12.00;9.35;;;;;;;0.28;100.00;100570.44;699301;28;1057;-56
2021/11/25 01:12:30;;;;;;;13.23;10.15;;;;;;;0.27;100.00;100576.41;699580;28;1321;-51
2021/11/25 01:12:52;;;;;;;13.13;10.20;;;;;;;0.27;100.00;100573.84;696896;28;1281;-50
2021/11/25 01:13:12;;;;;;;12.63;9.82;;;;;;;0.28;100.00;100580.72;696854;28;4545;-52
2021/11/25 01:13:33;;;;;;;11.63;9.50;;;;;;;0.30;100.00;100579.06;694746;28;3202;-50
2021/11/25 01:13:53;;;;;;;11.35;9.30;;;;;;;0.32;100.00;100577.44;693284;28;3436;-51
2021/11/25 01:14:15;;;;;;;10.83;9.23;;;;;;;0.37;100.00;100574.16;694116;28;1349;-52
2021/11/25 01:14:36;;;;;;;12.88;9.65;;;;;;;0.37;100.00;100575.03;695156;28;1469;-51
2021/11/25 01:14:58;;;;;;;14.25;10.00;;;;;;;0.36;100.00;100577.56;696599;28;1000;-54
2021/11/25 01:15:20;;;;;;;12.38;10.02;;;;;;;0.34;100.00;100575.78;696334;28;1436;-52
2021/11/25 01:15:41;;;;;;;13.40;10.13;;;;;;;0.34;100.00;100568.06;697175;28;1893;-53
2021/11/25 01:16:01;;;;;;;12.50;9.68;;;;;;;0.34;100.00;100570.66;692155;28;4498;-52
2021/11/25 01:16:22;;;;;;;11.77;9.52;;;;;;;0.34;100.00;100570.66;692706;28;1369;-51
2021/11/25 01:16:43;;;;;;;11.43;9.60;;;;;;;0.33;100.00;100574.06;694692;28;2974;-54
2021/11/25 01:17:04;;;;;;;10.87;9.23;;;;;;;0.31;100.00;100570.53;693520;28;3338;-52
2021/11/25 01:17:25;;;;;;;12.13;9.70;;;;;;;0.31;100.00;100565.41;692754;28;3604;-51
2021/11/25 01:17:45;;;;;;;12.38;9.75;;;;;;;0.31;100.00;100564.53;697148;28;1225;-52
2021/11/25 01:18:12;;;;;;;13.13;9.80;;;;;;;0.31;100.00;100570.53;700270;28;1457;-51
2021/11/25 01:18:32;;;;;;;13.07;10.00;;;;;;;0.31;100.00;100560.25;699087;28;1290;-51
2021/11/25 01:18:53;;;;;;;12.13;9.70;;;;;;;0.34;100.00;100567.22;699545;28;5180;-52
2021/11/25 01:19:13;;;;;;;11.48;9.43;;;;;;;0.34;100.00;100557.78;699919;28;1485;-51
2021/11/25 01:19:35;;;;;;;11.47;9.20;;;;;;;0.36;100.00;100568.16;699666;28;1387;-53
2021/11/25 01:19:55;;;;;;;11.60;9.52;;;;;;;0.37;100.00;100569.03;698784;28;1175;-52
2021/11/25 01:20:17;;;;;;;11.15;9.25;;;;;;;0.39;100.00;100563.13;696044;28;2246;-51
2021/11/25 01:20:40;;;;;;;11.35;9.30;;;;;;;0.42;100.00;100562.34;696402;28;1064;-52
2021/11/25 01:21:00;;;;;;;12.10;9.40;;;;;;;0.43;100.00;100564.06;696388;28;1344;-51
2021/11/25 01:21:21;;;;;;;12.23;9.30;;;;;;;0.44;100.00;100565.84;695807;28;1006;-52
2021/11/25 01:21:41;;;;;;;12.73;9.33;;;;;;;0.45;100.00;100567.59;695772;28;1208;-52
2021/11/25 01:22:02;;;;;;;10.88;9.13;;;;;;;0.47;100.00;100560.78;695933;28;4575;-52
2021/11/25 01:22:23;;;;;;;11.00;9.43;;;;;;;0.48;100.00;100562.56;701256;28;1358;-53
2021/11/25 01:22:44;;;;;;;12.03;9.50;;;;;;;0.47;100.00;100561.69;701594;28;1307;-51
2021/11/25 01:23:09;;;;;;;12.23;9.82;;;;;;;0.47;100.00;100568.50;701361;28;1431;-52
2021/11/25 01:23:29;;;;;;;12.38;9.50;;;;;;;0.46;100.00;100564.22;700955;28;3156;-54
2021/11/25 01:23:50;;;;;;;11.88;9.02;;;;;;;0.44;100.00;100561.56;701950;28;1301;-52
2021/11/25 01:24:10;;;;;;;12.23;9.47;;;;;;;0.44;100.00;100566.69;699827;28;1152;-51
2021/11/25 01:24:31;;;;;;;12.70;9.63;;;;;;;0.42;100.00;100562.34;698761;28;1336;-54
2021/11/25 01:24:52;;;;;;;13.00;9.50;;;;;;;0.40;100.00;100559.72;698317;28;1059;-55
2021/11/25 01:25:13;;;;;;;11.48;9.07;;;;;;;0.40;100.00;100558.84;697335;28;4362;-50
2021/11/25 01:25:34;;;;;;;13.82;9.52;;;;;;;0.39;100.00;100557.06;698041;28;1942;-53
2021/11/25 01:25:57;;;;;;;13.70;9.68;;;;;;;0.41;100.00;100558.03;697877;28;1475;-52
2021/11/25 01:26:17;;;;;;;12.18;9.68;;;;;;;0.40;100.00;100558.84;696999;28;1397;-52
2021/11/25 01:26:38;;;;;;;12.10;9.50;;;;;;;0.39;100.00;100559.66;698781;28;1234;-54
2021/11/25 01:26:58;;;;;;;12.48;9.25;;;;;;;0.37;100.00;100559.59;696525;28;3786;-53
2021/11/25 01:27:19;;;;;;;11.33;9.10;;;;;;;0.38;100.00;100557.94;696411;28;1446;-52
2021/11/25 01:27:39;;;;;;;11.40;9.65;;;;;;;0.38;100.00;100555.34;696021;28;1453;-52
2021/11/25 01:28:00;;;;;;;12.20;9.57;;;;;;;0.39;100.00;100562.22;694277;28;4867;-52
2021/11/25 01:28:22;;;;;;;12.10;9.43;;;;;;;0.38;100.00;100555.34;696838;28;1357;-54
2021/11/25 01:28:42;;;;;;;11.23;9.18;;;;;;;0.39;100.00;100557.97;695820;28;1194;-52
2021/11/25 01:29:03;;;;;;;12.80;9.60;;;;;;;0.39;100.00;100554.50;697028;28;1213;-54
2021/11/25 01:29:24;;;;;;;12.65;9.43;;;;;;;0.42;100.00;100564.91;696536;28;1066;-54
2021/11/25 01:29:44;;;;;;;12.83;9.60;;;;;;;0.42;100.00;100559.78;697219;28;1214;-52
2021/11/25 01:30:07;;;;;;;12.13;10.13;;;;;;;0.43;100.00;100562.41;699001;28;3519;-51
2021/11/25 01:30:28;;;;;;;12.10;9.75;;;;;;;0.42;100.00;100559.78;696556;28;3613;-55
2021/11/25 01:30:52;;;;;;;11.43;9.23;;;;;;;0.43;100.00;100558.94;699236;28;1228;-54
2021/11/25 01:31:12;;;;;;;12.32;9.30;;;;;;;0.43;100.00;100566.66;698897;28;4794;-53
2021/11/25 01:31:33;;;;;;;11.13;8.97;;;;;;;0.44;100.00;100561.56;697592;28;1321;-54
2021/11/25 01:31:53;;;;;;;11.57;9.13;;;;;;;0.44;100.00;100558.97;697946;28;1063;-52
2021/11/25 01:32:13;;;;;;;12.07;9.50;;;;;;;0.44;100.00;100561.56;697132;28;1527;-51
2021/11/25 01:32:34;;;;;;;11.02;9.23;;;;;;;0.47;100.00;100560.78;696609;28;1364;-52
2021/11/25 01:32:55;;;;;;;11.37;9.40;;;;;;;0.47;100.00;100561.69;696222;28;1620;-52
2021/11/25 01:33:16;;;;;;;12.55;9.60;;;;;;;0.47;100.00;100563.38;697043;28;3286;-51
2021/11/25 01:33:37;;;;;;;12.30;9.45;;;;;;;0.47;100.00;100563.38;696653;28;3761;-50
2021/11/25 01:33:57;;;;;;;11.37;8.93;;;;;;;0.48;100.00;100567.69;696377;28;4636;-52
2021/11/25 01:34:17;;;;;;;12.07;9.63;;;;;;;0.48;100.00;100563.41;696985;28;1287;-53
2021/11/25 01:34:38;;;;;;;12.33;9.83;;;;;;;0.49;100.00;100561.72;696442;28;1310;-54
2021/11/25 01:34:59;;;;;;;11.30;9.43;;;;;;;0.48;100.00;100567.69;695338;28;1313;-54
2021/11/25 01:35:19;;;;;;;11.80;9.68;;;;;;;0.50;100.00;100571.22;697193;28;1067;-50
2021/11/25 01:35:40;;;;;;;12.43;9.60;;;;;;;0.49;100.00;100564.31;697978;28;1205;-52
2021/11/25 01:36:01;;;;;;;13.48;9.65;;;;;;;0.49;100.00;100565.16;697574;28;1534;-51
2021/11/25 01:36:22;;;;;;;11.57;9.23;;;;;;;0.48;100.00;100563.41;697863;28;1061;-50
2021/11/25 01:36:42;;;;;;;12.37;9.63;;;;;;;0.48;100.00;100562.56;697085;28;1855;-50
2021/11/25 01:37:03;;;;;;;13.85;9.95;;;;;;;0.47;100.00;100563.38;697328;28;4809;-50
2021/11/25 01:37:25;;;;;;;13.10;10.50;;;;;;;0.46;100.00;100559.06;698013;28;1322;-51